Terminal Aerodrome Forecast
Issued by NWS Shreveport, LA

Home | Current Version | Previous Version | Text Only | Print | Product List | Glossary On
Versions: 1 2 3 4 5 6 7 8 9 10 11 12 13 14 15 16 17 18 19 20 21 22 23 24 25
486
FTUS44 KSHV 230759 AAA
TAFGGG
TAF AMD
KGGG 230759Z 2308/2406 00000KT P6SM VCTS SCT005 OVC010CB
      TEMPO 2308/2312 2SM TSRA BR OVC002CB
     FM231500 06004KT 2SM BR OVC004
     FM232100 17005KT P6SM OVC007
     FM240000 10004KT P6SM OVC015
     FM240300 11005KT 5SM BR OVC015=

USA.gov is the U.S. government's official web portal to all federal, state and local government web resources and services.